sensor_id;sensor_type;location;lat;lon;timestamp;temperature;humidity
5792;DHT22;2922;53.482;10.006;2023-09-19T00:00:01;17.10;99.90
5792;DHT22;2922;53.482;10.006;2023-09-19T00:02:26;17.10;99.90
5792;DHT22;2922;53.482;10.006;2023-09-19T00:04:52;17.10;99.90
5792;DHT22;2922;53.482;10.006;2023-09-19T00:07:19;17.20;99.90
5792;DHT22;2922;53.482;10.006;2023-09-19T00:09:44;17.20;99.90
5792;DHT22;2922;53.482;10.006;2023-09-19T00:12:10;17.20;99.90
5792;DHT22;2922;53.482;10.006;2023-09-19T00:14:35;17.20;99.90
5792;DHT22;2922;53.482;10.006;2023-09-19T00:17:02;17.20;99.90
5792;DHT22;2922;53.482;10.006;2023-09-19T00:19:31;17.20;99.90
5792;DHT22;2922;53.482;10.006;2023-09-19T00:21:58;17.10;99.90
5792;DHT22;2922;53.482;10.006;2023-09-19T00:24:23;17.10;99.90
5792;DHT22;2922;53.482;10.006;2023-09-19T00:26:49;17.10;99.90
5792;DHT22;2922;53.482;10.006;2023-09-19T00:29:14;17.20;99.90
5792;DHT22;2922;53.482;10.006;2023-09-19T00:31:44;17.10;99.90
5792;DHT22;2922;53.482;10.006;2023-09-19T00:34:10;17.10;99.90
5792;DHT22;2922;53.482;10.006;2023-09-19T00:36:37;17.10;99.90
5792;DHT22;2922;53.482;10.006;2023-09-19T00:39:05;17.10;99.90
5792;DHT22;2922;53.482;10.006;2023-09-19T00:41:34;17.10;99.90
5792;DHT22;2922;53.482;10.006;2023-09-19T00:44:02;17.00;99.90
5792;DHT22;2922;53.482;10.006;2023-09-19T00:46:28;17.00;99.90
5792;DHT22;2922;53.482;10.006;2023-09-19T00:48:54;17.00;99.90
5792;DHT22;2922;53.482;10.006;2023-09-19T00:51:20;17.00;99.90
5792;DHT22;2922;53.482;10.006;2023-09-19T00:53:47;17.00;99.90
5792;DHT22;2922;53.482;10.006;2023-09-19T00:56:13;17.00;99.90
5792;DHT22;2922;53.482;10.006;2023-09-19T00:58:44;17.00;99.90
5792;DHT22;2922;53.482;10.006;2023-09-19T01:01:10;17.00;99.90
5792;DHT22;2922;53.482;10.006;2023-09-19T01:03:37;17.00;99.90
5792;DHT22;2922;53.482;10.006;2023-09-19T01:06:03;17.00;99.90
5792;DHT22;2922;53.482;10.006;2023-09-19T01:08:29;17.00;99.90
5792;DHT22;2922;53.482;10.006;2023-09-19T01:14:42;17.00;99.90
5792;DHT22;2922;53.482;10.006;2023-09-19T01:17:00;17.00;99.90
5792;DHT22;2922;53.482;10.006;2023-09-19T01:22:28;17.00;99.90
5792;DHT22;2922;53.482;10.006;2023-09-19T01:25:20;17.00;99.90
5792;DHT22;2922;53.482;10.006;2023-09-19T01:30:33;17.00;99.90
5792;DHT22;2922;53.482;10.006;2023-09-19T01:33:01;17.00;99.90
5792;DHT22;2922;53.482;10.006;2023-09-19T01:35:27;17.00;99.90
5792;DHT22;2922;53.482;10.006;2023-09-19T01:37:53;17.00;99.90
5792;DHT22;2922;53.482;10.006;2023-09-19T01:40:20;17.00;99.90
5792;DHT22;2922;53.482;10.006;2023-09-19T01:43:17;17.00;99.90
5792;DHT22;2922;53.482;10.006;2023-09-19T01:45:57;17.00;99.90
5792;DHT22;2922;53.482;10.006;2023-09-19T01:48:46;17.00;99.90
5792;DHT22;2922;53.482;10.006;2023-09-19T01:51:21;17.00;99.90
5792;DHT22;2922;53.482;10.006;2023-09-19T01:56:45;17.00;99.90
5792;DHT22;2922;53.482;10.006;2023-09-19T01:59:21;17.00;99.90
5792;DHT22;2922;53.482;10.006;2023-09-19T02:01:48;17.00;99.90
5792;DHT22;2922;53.482;10.006;2023-09-19T02:04:14;17.00;99.90
5792;DHT22;2922;53.482;10.006;2023-09-19T02:06:41;17.00;99.90
5792;DHT22;2922;53.482;10.006;2023-09-19T02:09:07;17.00;99.90
5792;DHT22;2922;53.482;10.006;2023-09-19T02:11:34;17.00;99.90
5792;DHT22;2922;53.482;10.006;2023-09-19T02:14:00;17.00;99.90
5792;DHT22;2922;53.482;10.006;2023-09-19T02:16:26;17.00;99.90
5792;DHT22;2922;53.482;10.006;2023-09-19T02:18:52;17.00;99.90
5792;DHT22;2922;53.482;10.006;2023-09-19T02:21:18;16.90;99.90
5792;DHT22;2922;53.482;10.006;2023-09-19T02:23:44;16.90;99.90
5792;DHT22;2922;53.482;10.006;2023-09-19T02:26:11;16.90;99.90
5792;DHT22;2922;53.482;10.006;2023-09-19T02:28:37;16.90;99.90
5792;DHT22;2922;53.482;10.006;2023-09-19T02:31:03;16.80;99.90
5792;DHT22;2922;53.482;10.006;2023-09-19T02:33:31;16.80;99.90
5792;DHT22;2922;53.482;10.006;2023-09-19T02:35:58;16.70;99.90
5792;DHT22;2922;53.482;10.006;2023-09-19T02:38:24;16.70;99.90
5792;DHT22;2922;53.482;10.006;2023-09-19T02:40:54;16.70;99.90
5792;DHT22;2922;53.482;10.006;2023-09-19T02:43:21;16.70;99.90
5792;DHT22;2922;53.482;10.006;2023-09-19T02:45:47;16.60;99.90
5792;DHT22;2922;53.482;10.006;2023-09-19T02:48:15;16.60;99.90
5792;DHT22;2922;53.482;10.006;2023-09-19T02:50:41;16.60;99.90
5792;DHT22;2922;53.482;10.006;2023-09-19T02:53:07;16.60;99.90
5792;DHT22;2922;53.482;10.006;2023-09-19T02:55:33;16.50;99.90
5792;DHT22;2922;53.482;10.006;2023-09-19T02:57:59;16.50;99.90
5792;DHT22;2922;53.482;10.006;2023-09-19T03:00:27;16.50;99.90
5792;DHT22;2922;53.482;10.006;2023-09-19T03:02:56;16.50;99.90
5792;DHT22;2922;53.482;10.006;2023-09-19T03:05:22;16.50;99.90
5792;DHT22;2922;53.482;10.006;2023-09-19T03:07:49;16.50;99.90
5792;DHT22;2922;53.482;10.006;2023-09-19T03:10:17;16.50;99.90
5792;DHT22;2922;53.482;10.006;2023-09-19T03:12:43;16.50;99.90
5792;DHT22;2922;53.482;10.006;2023-09-19T03:15:08;16.50;99.90
5792;DHT22;2922;53.482;10.006;2023-09-19T03:17:34;16.50;99.90
5792;DHT22;2922;53.482;10.006;2023-09-19T03:20:01;16.50;99.90
5792;DHT22;2922;53.482;10.006;2023-09-19T03:22:27;16.50;99.90
5792;DHT22;2922;53.482;10.006;2023-09-19T03:24:53;16.50;99.90
5792;DHT22;2922;53.482;10.006;2023-09-19T03:27:19;16.50;99.90
5792;DHT22;2922;53.482;10.006;2023-09-19T03:29:46;16.50;99.90
5792;DHT22;2922;53.482;10.006;2023-09-19T03:32:12;16.50;99.90
5792;DHT22;2922;53.482;10.006;2023-09-19T03:34:38;16.50;99.90
5792;DHT22;2922;53.482;10.006;2023-09-19T03:37:11;16.40;99.90
5792;DHT22;2922;53.482;10.006;2023-09-19T03:39:36;16.40;99.90
5792;DHT22;2922;53.482;10.006;2023-09-19T03:42:02;16.30;99.90
5792;DHT22;2922;53.482;10.006;2023-09-19T03:44:29;16.30;99.90
5792;DHT22;2922;53.482;10.006;2023-09-19T03:46:55;16.30;99.90
5792;DHT22;2922;53.482;10.006;2023-09-19T03:49:22;16.30;99.90
5792;DHT22;2922;53.482;10.006;2023-09-19T03:51:48;16.30;99.90
5792;DHT22;2922;53.482;10.006;2023-09-19T03:54:13;16.20;99.90
5792;DHT22;2922;53.482;10.006;2023-09-19T03:56:39;16.10;99.90
5792;DHT22;2922;53.482;10.006;2023-09-19T03:59:04;16.10;99.90
5792;DHT22;2922;53.482;10.006;2023-09-19T04:01:30;16.10;99.90
5792;DHT22;2922;53.482;10.006;2023-09-19T04:03:58;16.00;99.90
5792;DHT22;2922;53.482;10.006;2023-09-19T04:06:24;15.90;99.90
5792;DHT22;2922;53.482;10.006;2023-09-19T04:08:49;15.90;99.90
5792;DHT22;2922;53.482;10.006;2023-09-19T04:11:15;15.80;99.90
5792;DHT22;2922;53.482;10.006;2023-09-19T04:13:41;15.80;99.90
5792;DHT22;2922;53.482;10.006;2023-09-19T04:16:06;15.70;99.90
5792;DHT22;2922;53.482;10.006;2023-09-19T04:18:35;15.60;99.90
5792;DHT22;2922;53.482;10.006;2023-09-19T04:21:03;15.60;99.90
5792;DHT22;2922;53.482;10.006;2023-09-19T04:23:31;15.60;99.90
5792;DHT22;2922;53.482;10.006;2023-09-19T04:25:57;15.50;99.90
5792;DHT22;2922;53.482;10.006;2023-09-19T04:28:23;15.50;99.90
5792;DHT22;2922;53.482;10.006;2023-09-19T04:30:49;15.50;99.90
5792;DHT22;2922;53.482;10.006;2023-09-19T04:33:15;15.40;99.90
5792;DHT22;2922;53.482;10.006;2023-09-19T04:35:41;15.40;99.90
5792;DHT22;2922;53.482;10.006;2023-09-19T04:38:08;15.30;99.90
5792;DHT22;2922;53.482;10.006;2023-09-19T04:40:34;15.30;99.90
5792;DHT22;2922;53.482;10.006;2023-09-19T04:42:59;15.30;99.90
5792;DHT22;2922;53.482;10.006;2023-09-19T04:45:28;15.30;99.90
5792;DHT22;2922;53.482;10.006;2023-09-19T04:47:55;15.20;99.90
5792;DHT22;2922;53.482;10.006;2023-09-19T04:50:21;15.20;99.90
5792;DHT22;2922;53.482;10.006;2023-09-19T04:52:51;15.10;99.90
5792;DHT22;2922;53.482;10.006;2023-09-19T04:55:17;15.10;99.90
5792;DHT22;2922;53.482;10.006;2023-09-19T04:57:45;15.10;99.90
5792;DHT22;2922;53.482;10.006;2023-09-19T05:00:12;15.10;99.90
5792;DHT22;2922;53.482;10.006;2023-09-19T05:02:40;15.10;99.90
5792;DHT22;2922;53.482;10.006;2023-09-19T05:05:10;15.00;99.90
5792;DHT22;2922;53.482;10.006;2023-09-19T05:07:36;15.00;99.90
5792;DHT22;2922;53.482;10.006;2023-09-19T05:10:03;15.00;99.90
5792;DHT22;2922;53.482;10.006;2023-09-19T05:12:35;15.00;99.90
5792;DHT22;2922;53.482;10.006;2023-09-19T05:15:04;15.00;99.90
5792;DHT22;2922;53.482;10.006;2023-09-19T05:17:30;15.00;99.90
5792;DHT22;2922;53.482;10.006;2023-09-19T05:19:57;15.00;99.90
5792;DHT22;2922;53.482;10.006;2023-09-19T05:22:23;15.00;99.90
5792;DHT22;2922;53.482;10.006;2023-09-19T05:24:50;14.90;99.90
5792;DHT22;2922;53.482;10.006;2023-09-19T05:27:19;14.90;99.90
5792;DHT22;2922;53.482;10.006;2023-09-19T05:29:46;14.90;99.90
5792;DHT22;2922;53.482;10.006;2023-09-19T05:32:12;14.90;99.90
5792;DHT22;2922;53.482;10.006;2023-09-19T05:34:38;14.90;99.90
5792;DHT22;2922;53.482;10.006;2023-09-19T05:37:04;14.90;99.90
5792;DHT22;2922;53.482;10.006;2023-09-19T05:39:32;14.80;99.90
5792;DHT22;2922;53.482;10.006;2023-09-19T05:41:58;14.90;99.90
5792;DHT22;2922;53.482;10.006;2023-09-19T05:44:25;14.80;99.90
5792;DHT22;2922;53.482;10.006;2023-09-19T05:46:51;14.80;99.90
5792;DHT22;2922;53.482;10.006;2023-09-19T05:49:17;14.80;99.90
5792;DHT22;2922;53.482;10.006;2023-09-19T05:51:43;14.80;99.90
5792;DHT22;2922;53.482;10.006;2023-09-19T05:54:08;14.90;99.90
5792;DHT22;2922;53.482;10.006;2023-09-19T05:56:34;14.90;99.90
5792;DHT22;2922;53.482;10.006;2023-09-19T05:59:00;14.90;99.90
5792;DHT22;2922;53.482;10.006;2023-09-19T06:01:25;14.90;99.90
5792;DHT22;2922;53.482;10.006;2023-09-19T06:03:51;15.00;99.90
5792;DHT22;2922;53.482;10.006;2023-09-19T06:06:18;15.00;99.90
5792;DHT22;2922;53.482;10.006;2023-09-19T06:08:44;15.10;99.90
5792;DHT22;2922;53.482;10.006;2023-09-19T06:11:10;15.20;99.90
5792;DHT22;2922;53.482;10.006;2023-09-19T06:13:36;15.30;99.90
5792;DHT22;2922;53.482;10.006;2023-09-19T06:16:04;15.30;99.90
5792;DHT22;2922;53.482;10.006;2023-09-19T06:18:31;15.40;99.90
5792;DHT22;2922;53.482;10.006;2023-09-19T06:20:59;15.40;99.90
5792;DHT22;2922;53.482;10.006;2023-09-19T06:23:25;15.50;99.90
5792;DHT22;2922;53.482;10.006;2023-09-19T06:25:52;15.60;99.90
5792;DHT22;2922;53.482;10.006;2023-09-19T06:28:18;15.60;99.90
5792;DHT22;2922;53.482;10.006;2023-09-19T06:30:49;15.70;99.90
5792;DHT22;2922;53.482;10.006;2023-09-19T06:33:15;15.70;99.90
5792;DHT22;2922;53.482;10.006;2023-09-19T06:35:40;15.70;99.90
5792;DHT22;2922;53.482;10.006;2023-09-19T06:38:07;15.80;99.90
5792;DHT22;2922;53.482;10.006;2023-09-19T06:40:34;15.90;99.90
5792;DHT22;2922;53.482;10.006;2023-09-19T06:43:00;15.90;99.90
5792;DHT22;2922;53.482;10.006;2023-09-19T06:45:27;15.90;99.90
5792;DHT22;2922;53.482;10.006;2023-09-19T06:47:53;16.00;99.90
5792;DHT22;2922;53.482;10.006;2023-09-19T06:50:22;16.00;99.90
5792;DHT22;2922;53.482;10.006;2023-09-19T06:52:49;16.10;99.90
5792;DHT22;2922;53.482;10.006;2023-09-19T06:55:18;16.10;99.90
5792;DHT22;2922;53.482;10.006;2023-09-19T06:57:48;16.10;99.90
5792;DHT22;2922;53.482;10.006;2023-09-19T07:00:14;16.10;99.90
5792;DHT22;2922;53.482;10.006;2023-09-19T07:02:58;16.10;99.90
5792;DHT22;2922;53.482;10.006;2023-09-19T07:05:26;16.10;99.90
5792;DHT22;2922;53.482;10.006;2023-09-19T07:07:53;16.10;99.90
5792;DHT22;2922;53.482;10.006;2023-09-19T07:10:20;16.20;99.90
5792;DHT22;2922;53.482;10.006;2023-09-19T07:12:54;16.20;99.90
5792;DHT22;2922;53.482;10.006;2023-09-19T07:15:20;16.20;99.90
5792;DHT22;2922;53.482;10.006;2023-09-19T07:17:46;16.30;99.90
5792;DHT22;2922;53.482;10.006;2023-09-19T07:20:13;16.30;99.90
5792;DHT22;2922;53.482;10.006;2023-09-19T07:22:41;16.40;99.90
5792;DHT22;2922;53.482;10.006;2023-09-19T07:25:07;16.40;99.90
5792;DHT22;2922;53.482;10.006;2023-09-19T07:27:33;16.50;99.90
5792;DHT22;2922;53.482;10.006;2023-09-19T07:29:59;16.40;99.90
5792;DHT22;2922;53.482;10.006;2023-09-19T07:32:24;16.40;99.90
5792;DHT22;2922;53.482;10.006;2023-09-19T07:34:50;16.50;99.90
5792;DHT22;2922;53.482;10.006;2023-09-19T07:37:16;16.50;99.90
5792;DHT22;2922;53.482;10.006;2023-09-19T07:39:42;16.60;99.90
5792;DHT22;2922;53.482;10.006;2023-09-19T07:42:08;16.60;99.90
5792;DHT22;2922;53.482;10.006;2023-09-19T07:44:35;16.70;99.90
5792;DHT22;2922;53.482;10.006;2023-09-19T07:47:01;16.70;99.90
5792;DHT22;2922;53.482;10.006;2023-09-19T07:49:28;16.60;99.90
5792;DHT22;2922;53.482;10.006;2023-09-19T07:51:54;16.60;99.90
5792;DHT22;2922;53.482;10.006;2023-09-19T07:54:20;16.60;99.90
5792;DHT22;2922;53.482;10.006;2023-09-19T07:56:46;16.60;99.90
5792;DHT22;2922;53.482;10.006;2023-09-19T07:59:12;16.60;99.90
5792;DHT22;2922;53.482;10.006;2023-09-19T08:01:39;16.60;99.90
5792;DHT22;2922;53.482;10.006;2023-09-19T08:04:07;16.60;99.90
5792;DHT22;2922;53.482;10.006;2023-09-19T08:06:32;16.60;99.90
5792;DHT22;2922;53.482;10.006;2023-09-19T08:08:58;16.50;99.90
5792;DHT22;2922;53.482;10.006;2023-09-19T08:11:26;16.50;99.90
5792;DHT22;2922;53.482;10.006;2023-09-19T08:13:56;16.60;99.90
5792;DHT22;2922;53.482;10.006;2023-09-19T08:16:21;16.60;99.90
5792;DHT22;2922;53.482;10.006;2023-09-19T08:18:48;16.60;99.90
5792;DHT22;2922;53.482;10.006;2023-09-19T08:21:14;16.60;99.90
5792;DHT22;2922;53.482;10.006;2023-09-19T08:23:40;16.50;99.90
5792;DHT22;2922;53.482;10.006;2023-09-19T08:26:06;16.50;99.90
5792;DHT22;2922;53.482;10.006;2023-09-19T08:28:35;16.50;99.90
5792;DHT22;2922;53.482;10.006;2023-09-19T08:31:04;16.60;99.90
5792;DHT22;2922;53.482;10.006;2023-09-19T08:33:35;16.60;99.90
5792;DHT22;2922;53.482;10.006;2023-09-19T08:36:04;16.70;99.90
5792;DHT22;2922;53.482;10.006;2023-09-19T08:38:35;16.80;99.90
5792;DHT22;2922;53.482;10.006;2023-09-19T08:41:05;16.90;99.90
5792;DHT22;2922;53.482;10.006;2023-09-19T08:43:31;16.90;99.90
5792;DHT22;2922;53.482;10.006;2023-09-19T08:46:19;16.90;99.90
5792;DHT22;2922;53.482;10.006;2023-09-19T08:49:08;17.00;99.90
5792;DHT22;2922;53.482;10.006;2023-09-19T08:51:45;17.00;99.90
5792;DHT22;2922;53.482;10.006;2023-09-19T08:54:22;17.10;99.90
5792;DHT22;2922;53.482;10.006;2023-09-19T08:56:53;17.10;99.90
5792;DHT22;2922;53.482;10.006;2023-09-19T08:59:22;17.10;99.90
5792;DHT22;2922;53.482;10.006;2023-09-19T09:01:53;17.10;99.90
5792;DHT22;2922;53.482;10.006;2023-09-19T09:04:19;17.20;99.90
5792;DHT22;2922;53.482;10.006;2023-09-19T09:06:45;17.20;99.90
5792;DHT22;2922;53.482;10.006;2023-09-19T09:09:15;17.20;99.90
5792;DHT22;2922;53.482;10.006;2023-09-19T09:11:40;17.30;99.90
5792;DHT22;2922;53.482;10.006;2023-09-19T09:14:07;17.30;99.90
5792;DHT22;2922;53.482;10.006;2023-09-19T09:16:33;17.40;99.90
5792;DHT22;2922;53.482;10.006;2023-09-19T09:22:18;17.60;99.90
5792;DHT22;2922;53.482;10.006;2023-09-19T09:24:57;17.60;99.90
5792;DHT22;2922;53.482;10.006;2023-09-19T09:27:29;17.80;99.90
